createdAt,value
2023-03-21T00:00:59.240Z,75.20
2023-03-21T00:05:59.290Z,70.30
2023-03-21T00:08:27.543Z,73.90
2023-03-21T00:11:01.023Z,71.50
2023-03-21T00:13:33.026Z,70.60
2023-03-21T00:16:19.392Z,69.60
2023-03-21T00:18:53.965Z,72.40
2023-03-21T00:21:43.969Z,68.70
2023-03-21T00:24:11.024Z,68.20
2023-03-21T00:26:40.463Z,75.20
2023-03-21T00:29:09.109Z,78.30
2023-03-21T00:31:40.645Z,68.00
2023-03-21T00:36:39.194Z,72.40
2023-03-21T00:39:09.386Z,68.90
2023-03-21T00:41:44.832Z,71.70
2023-03-21T00:44:16.114Z,71.60
2023-03-21T00:46:57.055Z,72.20
2023-03-21T00:49:34.341Z,68.60
2023-03-21T00:52:34.386Z,65.40
2023-03-21T00:54:55.113Z,66.30
2023-03-21T00:57:37.558Z,63.20
2023-03-21T01:00:12.123Z,66.80
2023-03-21T01:03:14.201Z,60.40
2023-03-21T01:06:04.321Z,60.10
2023-03-21T01:08:51.201Z,61.30
2023-03-21T01:11:26.006Z,62.50
2023-03-21T01:14:04.194Z,61.70
2023-03-21T01:16:39.617Z,59.00
2023-03-21T01:19:14.940Z,54.40
2023-03-21T01:21:50.711Z,51.10
2023-03-21T01:24:19.305Z,47.40
2023-03-21T01:26:48.527Z,53.20
2023-03-21T01:29:17.086Z,48.30
2023-03-21T01:31:45.687Z,50.70
2023-03-21T01:34:14.045Z,50.50
2023-03-21T01:37:02.488Z,48.40
2023-03-21T01:39:35.048Z,48.90
2023-03-21T01:42:03.356Z,46.00
2023-03-21T01:44:32.143Z,47.20
2023-03-21T01:47:11.068Z,43.90
2023-03-21T01:49:51.019Z,46.30
2023-03-21T01:52:38.116Z,45.10
2023-03-21T01:55:16.515Z,41.00
2023-03-21T01:58:05.863Z,44.10
2023-03-21T02:00:49.248Z,44.40
2023-03-21T02:03:35.340Z,49.00
2023-03-21T02:06:37.463Z,43.80
2023-03-21T02:09:16.784Z,47.50
2023-03-21T02:11:51.058Z,45.70
2023-03-21T02:14:28.977Z,42.40
2023-03-21T02:17:20.016Z,45.30
2023-03-21T02:20:02.787Z,46.20
2023-03-21T02:23:10.798Z,46.40
2023-03-21T02:25:57.099Z,45.20
2023-03-21T02:28:46.288Z,44.50
2023-03-21T02:31:54.631Z,44.00
2023-03-21T02:34:30.188Z,47.20
2023-03-21T02:37:02.784Z,46.20
2023-03-21T02:39:54.140Z,45.60
2023-03-21T02:42:33.819Z,45.70
2023-03-21T02:45:04.167Z,45.20
2023-03-21T02:47:41.037Z,44.70
2023-03-21T02:50:53.095Z,46.70
2023-03-21T02:53:23.408Z,47.50
2023-03-21T02:55:53.018Z,43.20
2023-03-21T02:58:39.285Z,49.40
2023-03-21T03:01:09.236Z,46.40
2023-03-21T03:03:45.185Z,47.10
2023-03-21T03:06:21.877Z,42.90
2023-03-21T03:09:02.838Z,52.60
2023-03-21T03:11:33.699Z,43.10
2023-03-21T03:14:44.254Z,37.90
2023-03-21T03:17:46.583Z,43.70
2023-03-21T03:20:23.525Z,44.10
2023-03-21T03:22:59.926Z,44.00
2023-03-21T03:25:42.973Z,43.40
2023-03-21T03:28:15.969Z,42.50
2023-03-21T03:30:57.462Z,44.20
2023-03-21T03:33:34.887Z,42.80
2023-03-21T03:36:07.168Z,44.00
2023-03-21T03:38:37.486Z,45.30
2023-03-21T03:41:11.061Z,49.50
2023-03-21T03:43:51.046Z,51.80
2023-03-21T03:46:29.372Z,47.10
2023-03-21T03:49:05.664Z,45.90
2023-03-21T03:51:51.915Z,45.40
2023-03-21T03:54:32.986Z,44.40
2023-03-21T03:57:05.191Z,47.70
2023-03-21T03:59:37.356Z,45.20
2023-03-21T04:02:20.633Z,44.30
2023-03-21T04:04:53.097Z,45.70
2023-03-21T04:07:22.597Z,44.50
2023-03-21T04:09:53.638Z,43.20
2023-03-21T04:12:22.453Z,43.00
2023-03-21T04:15:23.318Z,47.10
2023-03-21T04:17:57.677Z,44.80
2023-03-21T04:20:36.079Z,46.60
2023-03-21T04:23:06.618Z,46.00
2023-03-21T04:25:44.627Z,45.90
2023-03-21T04:28:16.279Z,45.10
2023-03-21T04:31:01.202Z,44.70
2023-03-21T04:33:38.641Z,43.30
2023-03-21T04:36:09.547Z,42.80
2023-03-21T04:38:39.292Z,45.60
2023-03-21T04:41:08.051Z,43.50
2023-03-21T04:43:38.599Z,43.90
2023-03-21T04:46:07.488Z,42.30
2023-03-21T04:48:35.881Z,42.70
2023-03-21T04:51:07.035Z,44.10
2023-03-21T04:53:36.217Z,40.80
2023-03-21T04:56:04.871Z,40.20
2023-03-21T04:58:33.701Z,40.80
2023-03-21T05:01:02.700Z,39.20
2023-03-21T05:03:40.156Z,37.80
2023-03-21T05:06:09.541Z,42.20
2023-03-21T05:08:37.846Z,41.00
2023-03-21T05:11:07.295Z,37.80
2023-03-21T05:13:36.231Z,41.30
2023-03-21T05:16:05.549Z,43.20
2023-03-21T05:18:38.969Z,41.80
2023-03-21T05:21:13.694Z,41.90
2023-03-21T05:23:42.072Z,41.70
2023-03-21T05:26:11.048Z,40.00
2023-03-21T05:28:48.431Z,40.70
2023-03-21T05:31:18.595Z,41.90
2023-03-21T05:33:48.876Z,44.30
2023-03-21T05:36:24.627Z,43.20
2023-03-21T05:38:52.806Z,41.30
2023-03-21T05:41:21.593Z,43.10
2023-03-21T05:43:50.162Z,42.20
2023-03-21T05:46:18.390Z,43.00
2023-03-21T05:48:48.639Z,45.00
2023-03-21T05:51:19.127Z,45.20
2023-03-21T05:53:47.522Z,43.80
2023-03-21T05:56:16.883Z,44.50
2023-03-21T05:58:50.454Z,47.10
2023-03-21T06:01:19.372Z,44.80
2023-03-21T06:03:53.872Z,42.20
2023-03-21T06:06:28.806Z,42.50
2023-03-21T06:08:58.592Z,44.00
2023-03-21T06:11:29.170Z,43.60
2023-03-21T06:14:13.089Z,38.70
2023-03-21T06:16:45.596Z,38.80
2023-03-21T06:19:14.873Z,36.00
2023-03-21T06:22:00.276Z,39.20
2023-03-21T06:24:29.061Z,36.30
2023-03-21T06:26:57.650Z,35.10
2023-03-21T06:29:27.933Z,31.70
2023-03-21T06:31:56.139Z,34.30
2023-03-21T06:34:24.729Z,32.70
2023-03-21T06:37:00.513Z,34.00
2023-03-21T06:39:33.272Z,34.80
2023-03-21T06:42:01.674Z,34.10
2023-03-21T06:44:34.478Z,32.50
2023-03-21T06:47:06.747Z,36.30
2023-03-21T06:49:35.402Z,37.00
2023-03-21T06:52:10.089Z,34.10
2023-03-21T06:54:38.996Z,38.10
2023-03-21T06:57:13.727Z,34.70
2023-03-21T06:59:43.288Z,39.10
2023-03-21T07:02:19.150Z,38.80
2023-03-21T07:04:52.183Z,38.80
2023-03-21T07:07:27.212Z,40.20
2023-03-21T07:10:11.493Z,42.50
2023-03-21T07:12:47.225Z,44.90
2023-03-21T07:15:20.200Z,37.30
2023-03-21T07:17:48.867Z,42.90
2023-03-21T07:20:17.548Z,39.50
2023-03-21T07:22:46.502Z,41.30
2023-03-21T07:25:20.900Z,38.20
2023-03-21T07:27:51.142Z,39.00
2023-03-21T07:30:20.743Z,38.10
2023-03-21T07:32:51.179Z,39.20
2023-03-21T07:35:19.781Z,39.80
2023-03-21T07:37:49.126Z,38.80
2023-03-21T07:40:18.423Z,41.70
2023-03-21T07:42:48.759Z,35.60
2023-03-21T07:45:27.485Z,35.00
2023-03-21T07:47:56.192Z,35.30
2023-03-21T07:50:25.769Z,35.80
2023-03-21T07:52:54.485Z,34.60
2023-03-21T07:55:22.936Z,34.10
2023-03-21T07:57:55.746Z,34.60
2023-03-21T08:00:24.215Z,30.60
2023-03-21T08:02:58.747Z,32.50
2023-03-21T08:05:37.610Z,31.50
2023-03-21T08:08:07.248Z,30.20
2023-03-21T08:10:35.341Z,29.60
2023-03-21T08:20:45.326Z,28.90
2023-03-21T08:23:15.141Z,27.30
2023-03-21T08:25:43.380Z,26.30
2023-03-21T08:28:11.997Z,26.00
2023-03-21T08:30:40.846Z,27.70
2023-03-21T08:33:09.261Z,29.40
2023-03-21T08:35:47.114Z,27.90
2023-03-21T08:38:17.073Z,26.90
2023-03-21T08:40:46.084Z,26.00
2023-03-21T08:43:18.143Z,25.00
2023-03-21T08:45:46.592Z,28.70
2023-03-21T08:48:20.349Z,27.30
2023-03-21T08:50:49.500Z,24.70
2023-03-21T08:53:18.783Z,26.80
2023-03-21T08:55:46.967Z,24.30
2023-03-21T08:58:15.704Z,23.80
2023-03-21T09:00:44.852Z,27.30
2023-03-21T09:03:14.730Z,24.40
2023-03-21T09:05:45.788Z,25.60
2023-03-21T09:08:14.294Z,28.00
2023-03-21T09:10:42.480Z,25.90
2023-03-21T09:13:18.073Z,24.90
2023-03-21T09:15:47.356Z,30.80
2023-03-21T09:18:18.230Z,36.90
2023-03-21T09:20:55.581Z,37.60
2023-03-21T09:23:24.544Z,32.50
2023-03-21T09:25:52.662Z,26.20
2023-03-21T09:28:21.471Z,19.70
2023-03-21T09:30:49.878Z,27.90
2023-03-21T09:33:19.272Z,32.20
2023-03-21T09:35:47.983Z,37.00
2023-03-21T09:38:17.484Z,31.80
2023-03-21T09:40:49.928Z,34.60
2023-03-21T09:43:22.334Z,36.80
2023-03-21T09:46:06.523Z,33.10
2023-03-21T09:49:13.109Z,32.70
2023-03-21T09:51:48.900Z,29.00
2023-03-21T09:54:28.111Z,34.00
2023-03-21T09:56:58.261Z,36.70
2023-03-21T09:59:30.809Z,35.90
2023-03-21T10:02:00.645Z,37.00
2023-03-21T10:04:32.512Z,30.40
2023-03-21T10:07:02.219Z,32.40
2023-03-21T10:09:30.473Z,40.70
2023-03-21T10:12:09.889Z,32.80
2023-03-21T10:14:40.689Z,32.90
2023-03-21T10:17:29.212Z,33.70
2023-03-21T10:20:12.224Z,36.70
2023-03-21T10:22:43.757Z,36.70
2023-03-21T10:25:15.556Z,39.00
2023-03-21T10:27:45.431Z,39.90
2023-03-21T10:30:38.013Z,38.80
2023-03-21T10:33:09.604Z,47.40
2023-03-21T10:35:38.274Z,41.00
2023-03-21T10:38:07.138Z,42.10
2023-03-21T10:40:35.823Z,48.50
2023-03-21T10:43:26.019Z,47.90
2023-03-21T10:45:54.761Z,46.20
2023-03-21T10:48:23.866Z,43.90
2023-03-21T10:50:53.306Z,43.00
2023-03-21T10:53:43.237Z,41.40
2023-03-21T10:56:11.697Z,38.00
2023-03-21T10:58:45.561Z,38.80
2023-03-21T11:01:15.907Z,41.40
2023-03-21T11:03:46.874Z,40.30
2023-03-21T11:06:22.629Z,41.30
2023-03-21T11:08:54.190Z,43.40
2023-03-21T11:11:27.543Z,40.70
2023-03-21T11:14:07.264Z,41.80
2023-03-21T11:16:41.191Z,38.60
2023-03-21T11:19:33.727Z,39.40
2023-03-21T11:22:07.906Z,36.80
2023-03-21T11:24:37.588Z,33.90
2023-03-21T11:27:08.989Z,32.30
2023-03-21T11:29:42.792Z,33.80
2023-03-21T11:32:13.063Z,32.20
2023-03-21T11:35:00.572Z,31.60
2023-03-21T11:37:35.053Z,33.20
2023-03-21T11:42:53.549Z,33.20
2023-03-21T11:45:23.581Z,30.10
2023-03-21T11:47:57.863Z,36.10
2023-03-21T12:00:15.917Z,32.00
2023-03-21T12:03:10.806Z,31.90
2023-03-21T12:05:56.415Z,35.20
2023-03-21T12:09:04.099Z,29.90
2023-03-21T12:11:50.508Z,28.50
2023-03-21T12:14:27.340Z,27.30
2023-03-21T12:17:27.579Z,24.50
2023-03-21T12:20:08.192Z,27.80
2023-03-21T12:22:58.043Z,28.50
2023-03-21T12:25:46.938Z,38.90
2023-03-21T12:28:32.555Z,31.00
2023-03-21T12:31:11.091Z,27.30
2023-03-21T12:33:49.730Z,30.20
2023-03-21T12:36:30.116Z,25.70
2023-03-21T12:39:24.968Z,24.50
2023-03-21T12:41:59.467Z,29.00
2023-03-21T12:44:29.615Z,28.30
2023-03-21T12:47:03.471Z,22.10
2023-03-21T12:49:39.304Z,25.40
2023-03-21T12:52:10.747Z,26.90
2023-03-21T12:54:41.830Z,25.00
2023-03-21T12:57:16.074Z,25.80
2023-03-21T13:00:21.813Z,23.70
2023-03-21T13:03:02.965Z,22.80
2023-03-21T13:05:38.690Z,23.60
2023-03-21T13:08:23.736Z,24.40
2023-03-21T13:10:51.833Z,23.30
2023-03-21T13:13:26.120Z,26.10
2023-03-21T13:16:10.545Z,22.90
2023-03-21T13:18:50.131Z,23.00
2023-03-21T13:21:34.061Z,24.80
2023-03-21T13:24:28.962Z,21.90
2023-03-21T13:27:00.689Z,24.60
2023-03-21T13:29:32.290Z,25.90
2023-03-21T13:32:16.608Z,24.40
2023-03-21T13:34:44.674Z,27.30
2023-03-21T13:37:15.730Z,26.80
2023-03-21T13:39:46.093Z,24.20
2023-03-21T13:42:23.977Z,25.20
2023-03-21T13:45:00.723Z,29.00
2023-03-21T13:47:36.076Z,30.80
2023-03-21T13:50:19.429Z,28.70
2023-03-21T13:53:15.504Z,24.40
2023-03-21T13:55:44.925Z,25.40
2023-03-21T13:58:24.370Z,24.30
2023-03-21T14:01:23.707Z,25.10
2023-03-21T14:03:59.805Z,21.90
2023-03-21T14:06:42.785Z,25.40
2023-03-21T14:09:17.523Z,23.30
2023-03-21T14:11:47.277Z,23.90
2023-03-21T14:14:20.634Z,23.50
2023-03-21T14:19:19.244Z,24.20
2023-03-21T14:21:51.689Z,26.70
2023-03-21T14:24:21.186Z,28.20
2023-03-21T14:26:50.883Z,23.80
2023-03-21T14:29:27.574Z,27.40
2023-03-21T14:31:56.626Z,24.50
2023-03-21T14:34:27.197Z,22.80
2023-03-21T14:36:58.563Z,22.80
2023-03-21T14:39:29.458Z,23.60
2023-03-21T14:42:05.576Z,20.70
2023-03-21T14:44:54.048Z,24.60
2023-03-21T14:47:25.349Z,28.20
2023-03-21T14:49:53.628Z,27.80
2023-03-21T14:52:27.380Z,29.00
2023-03-21T14:54:56.283Z,31.10
2023-03-21T14:57:29.050Z,27.40
2023-03-21T14:59:59.660Z,34.60
2023-03-21T15:02:33.895Z,25.80
2023-03-21T15:05:09.765Z,29.10
2023-03-21T15:07:39.224Z,27.00
2023-03-21T15:10:14.422Z,25.20
2023-03-21T15:12:57.329Z,24.20
2023-03-21T15:17:58.395Z,28.70
2023-03-21T15:20:31.287Z,26.90
2023-03-21T15:23:03.266Z,26.20
2023-03-21T15:25:34.090Z,26.50
2023-03-21T15:28:02.375Z,28.60
2023-03-21T15:30:31.869Z,25.90
2023-03-21T15:33:07.900Z,25.70
2023-03-21T15:35:42.353Z,28.80
2023-03-21T15:38:29.923Z,28.30
2023-03-21T15:41:20.590Z,27.20
2023-03-21T15:44:02.763Z,29.40
2023-03-21T15:46:35.544Z,28.60
2023-03-21T15:49:14.617Z,26.00
2023-03-21T15:51:52.963Z,35.70
2023-03-21T15:54:27.426Z,27.60
2023-03-21T15:57:01.686Z,25.30
2023-03-21T15:59:37.335Z,24.40
2023-03-21T16:02:19.462Z,26.50
2023-03-21T16:05:01.355Z,26.30
2023-03-21T16:07:36.686Z,28.40
2023-03-21T16:10:08.335Z,27.20
2023-03-21T16:12:38.841Z,28.70
2023-03-21T16:15:11.410Z,31.20
2023-03-21T16:17:47.556Z,28.80
2023-03-21T16:20:22.363Z,27.30
2023-03-21T16:22:53.325Z,29.50
2023-03-21T16:25:24.341Z,34.80
2023-03-21T16:27:56.364Z,28.70
2023-03-21T16:30:28.623Z,25.40
2023-03-21T16:33:04.356Z,32.60
2023-03-21T16:35:37.438Z,33.00
2023-03-21T16:38:11.140Z,31.10
2023-03-21T16:40:43.442Z,34.60
2023-03-21T16:43:15.470Z,27.60
2023-03-21T16:45:50.526Z,31.40
2023-03-21T16:48:22.490Z,32.30
2023-03-21T16:50:54.408Z,30.20
2023-03-21T16:53:25.373Z,30.50
2023-03-21T16:56:03.399Z,34.50
2023-03-21T17:06:15.141Z,43.20
2023-03-21T17:08:44.090Z,44.60
2023-03-21T17:11:16.564Z,47.40
2023-03-21T17:13:44.850Z,52.80
2023-03-21T17:16:14.055Z,50.00
2023-03-21T17:18:47.586Z,47.30
2023-03-21T17:21:20.717Z,53.70
2023-03-21T17:23:48.917Z,51.40
2023-03-21T17:26:22.987Z,55.00
2023-03-21T17:28:54.867Z,51.60
2023-03-21T17:31:25.433Z,58.00
2023-03-21T17:33:53.525Z,58.70
2023-03-21T17:36:27.380Z,55.40
2023-03-21T17:38:55.766Z,56.60
2023-03-21T17:41:24.115Z,56.90
2023-03-21T17:43:55.807Z,54.90
2023-03-21T17:46:25.296Z,55.50
2023-03-21T17:48:53.695Z,59.50
2023-03-21T17:51:26.177Z,61.00
2023-03-21T17:53:54.268Z,64.10
2023-03-21T17:56:32.144Z,61.00
2023-03-21T17:59:02.217Z,71.00
2023-03-21T18:04:05.274Z,79.00
2023-03-21T18:06:35.326Z,71.10
2023-03-21T18:09:07.207Z,73.40
2023-03-21T18:11:39.261Z,72.10
2023-03-21T18:14:16.561Z,70.10
2023-03-21T18:16:47.909Z,70.90
2023-03-21T18:19:16.232Z,70.20
2023-03-21T18:21:47.497Z,74.00
2023-03-21T18:24:16.677Z,72.40
2023-03-21T18:26:46.141Z,78.50
2023-03-21T18:30:15.763Z,69.90
2023-03-21T18:32:08.545Z,70.90
2023-03-21T18:34:38.794Z,72.00
2023-03-21T18:37:08.557Z,72.80
2023-03-21T18:39:38.042Z,81.00
2023-03-21T18:42:07.140Z,71.80
2023-03-21T18:44:45.564Z,76.70
2023-03-21T18:47:14.459Z,79.80
2023-03-21T18:52:32.172Z,87.20
2023-03-21T18:55:00.737Z,103.50
2023-03-21T18:57:36.956Z,104.20
2023-03-21T19:00:18.749Z,112.20
2023-03-21T19:02:50.683Z,99.20
2023-03-21T19:05:22.756Z,104.40
2023-03-21T19:07:51.977Z,95.20
2023-03-21T19:10:21.991Z,101.90
2023-03-21T19:12:52.868Z,123.60
2023-03-21T19:15:21.945Z,109.40
2023-03-21T19:20:45.570Z,93.70
2023-03-21T19:23:16.997Z,87.00
2023-03-21T19:25:45.727Z,84.80
2023-03-21T19:28:15.874Z,81.00
2023-03-21T19:30:50.076Z,81.60
2023-03-21T19:33:24.556Z,78.20
2023-03-21T19:36:10.698Z,69.90
2023-03-21T19:38:41.540Z,64.40
2023-03-21T19:41:10.096Z,66.00
2023-03-21T19:43:40.142Z,68.20
2023-03-21T19:46:11.347Z,69.80
2023-03-21T19:48:41.887Z,72.50
2023-03-21T19:51:27.490Z,70.60
2023-03-21T19:53:58.219Z,66.80
2023-03-21T19:56:27.676Z,67.30
2023-03-21T19:58:56.727Z,71.30
2023-03-21T20:01:25.420Z,75.30
2023-03-21T20:03:56.868Z,71.40
2023-03-21T20:06:26.892Z,71.40
2023-03-21T20:09:37.986Z,70.50
2023-03-21T20:11:47.287Z,73.50
2023-03-21T20:14:21.596Z,75.10
2023-03-21T20:16:51.472Z,73.50
2023-03-21T20:19:20.365Z,76.40
2023-03-21T20:21:57.937Z,78.60
2023-03-21T20:24:36.838Z,78.10
2023-03-21T20:27:06.467Z,82.90
2023-03-21T20:30:08.207Z,80.20
2023-03-21T20:32:27.450Z,79.50
2023-03-21T20:35:07.392Z,79.10
2023-03-21T20:37:48.414Z,75.00
2023-03-21T20:40:19.414Z,80.40
2023-03-21T20:42:49.135Z,82.30
2023-03-21T20:45:32.089Z,84.20
2023-03-21T20:48:00.497Z,85.70
2023-03-21T20:50:33.176Z,86.40
2023-03-21T20:53:07.389Z,88.80
2023-03-21T20:55:37.330Z,91.10
2023-03-21T20:58:27.222Z,84.90
2023-03-21T21:01:04.867Z,88.80
2023-03-21T21:03:42.589Z,82.90
2023-03-21T21:06:19.974Z,87.10
2023-03-21T21:08:52.274Z,87.50
2023-03-21T21:12:05.237Z,85.20
2023-03-21T21:14:09.371Z,87.40
2023-03-21T21:16:42.347Z,83.10
2023-03-21T21:19:13.026Z,82.20
2023-03-21T21:21:42.686Z,85.10
2023-03-21T21:24:14.612Z,88.40
2023-03-21T21:26:48.954Z,85.80
2023-03-21T21:29:20.657Z,89.10
2023-03-21T21:31:51.927Z,88.80
2023-03-21T21:34:20.827Z,86.60
2023-03-21T21:36:51.294Z,93.20
2023-03-21T21:39:21.997Z,87.30
2023-03-21T21:41:50.089Z,84.60
2023-03-21T21:44:19.782Z,85.90
2023-03-21T21:46:47.964Z,84.90
2023-03-21T21:49:17.764Z,94.40
2023-03-21T21:51:48.149Z,86.80
2023-03-21T21:54:18.478Z,91.10
2023-03-21T21:56:54.266Z,91.70
2023-03-21T21:59:26.016Z,86.90
2023-03-21T22:01:58.864Z,87.60
2023-03-21T22:04:28.683Z,90.10
2023-03-21T22:06:58.316Z,85.70
2023-03-21T22:09:27.528Z,84.00
2023-03-21T22:12:00.449Z,80.80
2023-03-21T22:17:00.401Z,81.30
2023-03-21T22:19:31.937Z,82.80
2023-03-21T22:30:07.437Z,78.50
2023-03-21T22:32:37.669Z,74.70
2023-03-21T22:35:08.729Z,76.20
2023-03-21T22:37:41.938Z,73.00
2023-03-21T22:40:10.886Z,72.80
2023-03-21T22:42:46.789Z,71.50
2023-03-21T22:45:14.085Z,75.00
2023-03-21T22:47:45.305Z,75.80
2023-03-21T22:50:18.804Z,75.60
2023-03-21T22:52:53.909Z,71.30
2023-03-21T22:55:24.384Z,75.70
2023-03-21T22:57:52.017Z,79.80
2023-03-21T23:00:19.524Z,78.10
2023-03-21T23:02:47.921Z,77.10
2023-03-21T23:05:15.167Z,66.70
2023-03-21T23:07:44.723Z,75.00
2023-03-21T23:10:12.729Z,75.20
2023-03-21T23:12:39.591Z,74.00
2023-03-21T23:15:09.225Z,75.10
2023-03-21T23:17:37.358Z,74.20
2023-03-21T23:20:08.017Z,73.40
2023-03-21T23:22:39.142Z,69.20
2023-03-21T23:25:06.927Z,68.80
2023-03-21T23:27:34.742Z,74.40
2023-03-21T23:30:07.055Z,72.20
2023-03-21T23:32:34.365Z,70.60
2023-03-21T23:35:12.503Z,69.20
2023-03-21T23:37:41.720Z,73.10
2023-03-21T23:40:09.865Z,68.90
2023-03-21T23:42:36.781Z,63.00
2023-03-21T23:45:04.134Z,64.90
2023-03-21T23:47:32.054Z,66.60
2023-03-21T23:49:59.173Z,67.40
2023-03-21T23:52:29.306Z,64.50
2023-03-21T23:54:56.420Z,66.80
2023-03-21T23:57:23.143Z,70.90
2023-03-21T23:59:52.882Z,72.50
